Time;durP1;ratioP1;P1;durP2;ratioP2;P2;SDS_P1;SDS_P2;PMS_P1;PMS_P2;Temp;Humidity;BMP_temperature;BMP_pressure;BME280_temperature;BME280_humidity;BME280_pressure;Samples;Min_cycle;Max_cycle;Signal;HPM_P1;HPM_P2
2022/03/23 00:00:50;;;;;;;36.53;17.25;;;5.80;81.30;;;;;;5016715;28;20050;-81
2022/03/23 00:03:16;;;;;;;41.25;16.92;;;5.80;80.50;;;;;;5016526;28;20107;-81
2022/03/23 00:05:43;;;;;;;40.20;17.27;;;5.80;79.30;;;;;;5014834;28;20112;-81
2022/03/23 00:08:09;;;;;;;40.28;17.15;;;5.80;80.60;;;;;;5013924;28;20023;-83
2022/03/23 00:10:35;;;;;;;34.47;16.27;;;5.80;79.90;;;;;;5014245;28;20023;-82
2022/03/23 00:13:03;;;;;;;42.22;16.77;;;5.80;79.80;;;;;;4996545;28;20076;-81
2022/03/23 00:15:30;;;;;;;39.17;16.92;;;5.80;81.00;;;;;;5013985;28;20382;-82
2022/03/23 00:17:57;;;;;;;35.88;16.50;;;5.70;81.40;;;;;;5011340;28;20037;-84
2022/03/23 00:20:24;;;;;;;39.08;16.58;;;5.70;81.20;;;;;;5010340;28;20054;-83
2022/03/23 00:22:51;;;;;;;48.97;18.05;;;5.70;81.20;;;;;;5044096;23;20094;-84
2022/03/23 00:25:17;;;;;;;39.90;17.13;;;5.70;81.00;;;;;;5102325;28;20551;-84
2022/03/23 00:27:43;;;;;;;43.47;17.17;;;5.70;80.40;;;;;;5084681;28;20058;-85
2022/03/23 00:30:10;;;;;;;41.03;17.13;;;5.60;80.50;;;;;;5102158;28;20095;-85
2022/03/23 00:32:36;;;;;;;40.85;17.65;;;5.50;80.00;;;;;;5102394;28;20028;-83
2022/03/23 00:35:03;;;;;;;41.00;17.83;;;5.60;79.40;;;;;;5119793;28;20057;-84
2022/03/23 00:37:29;;;;;;;37.53;17.48;;;5.50;80.40;;;;;;5103532;28;20030;-83
2022/03/23 00:39:55;;;;;;;44.60;18.15;;;5.50;80.40;;;;;;5109877;28;20013;-84
2022/03/23 00:42:21;;;;;;;39.58;17.77;;;5.50;80.20;;;;;;5136584;28;20038;-84
2022/03/23 00:44:47;;;;;;;41.35;17.05;;;5.50;80.90;;;;;;5101646;28;20095;-84
2022/03/23 00:47:14;;;;;;;41.58;18.75;;;5.40;81.60;;;;;;5116934;28;20027;-85
2022/03/23 00:49:40;;;;;;;42.45;16.85;;;5.40;82.20;;;;;;5132712;28;20032;-81
2022/03/23 00:52:06;;;;;;;44.05;17.17;;;5.40;82.50;;;;;;5117012;28;20027;-84
2022/03/23 00:54:36;;;;;;;39.85;17.65;;;5.30;82.60;;;;;;5125254;28;20503;-84
2022/03/23 00:57:06;;;;;;;52.53;18.77;;;5.30;83.10;;;;;;5106331;28;20591;-83
2022/03/23 00:59:33;;;;;;;51.05;20.63;;;5.30;84.00;;;;;;5132586;28;20031;-84
2022/03/23 01:01:59;;;;;;;49.83;19.77;;;5.30;85.30;;;;;;5130317;28;20031;-84
2022/03/23 01:04:25;;;;;;;58.22;20.85;;;5.20;89.30;;;;;;5118814;28;20032;-82
2022/03/23 01:06:54;;;;;;;50.05;19.65;;;5.20;89.70;;;;;;5133863;28;20023;-84
2022/03/23 01:09:23;;;;;;;48.10;18.52;;;5.20;90.80;;;;;;5133094;28;20019;-80
2022/03/23 01:11:53;;;;;;;51.15;19.15;;;5.20;91.00;;;;;;5134220;28;20020;-83
2022/03/23 01:14:22;;;;;;;44.20;18.55;;;5.10;91.20;;;;;;5118835;28;20030;-84
2022/03/23 01:16:49;;;;;;;44.35;19.15;;;5.00;91.80;;;;;;5118673;28;20016;-85
2022/03/23 01:19:16;;;;;;;42.33;18.58;;;5.00;91.90;;;;;;5134359;28;20031;-84
2022/03/23 01:21:42;;;;;;;41.97;18.75;;;5.00;91.90;;;;;;5110659;28;20095;-84
2022/03/23 01:24:08;;;;;;;42.50;19.38;;;5.00;91.40;;;;;;5111307;28;20023;-83
2022/03/23 01:26:34;;;;;;;45.47;19.08;;;4.90;90.20;;;;;;5120640;28;20036;-83
2022/03/23 01:29:00;;;;;;;48.53;19.35;;;4.80;89.90;;;;;;5112640;28;20040;-84
2022/03/23 01:31:27;;;;;;;40.95;17.95;;;4.90;90.50;;;;;;5118639;28;20027;-83
2022/03/23 01:33:59;;;;;;;41.75;18.63;;;4.90;90.70;;;;;;5134569;28;20039;-84
2022/03/23 01:36:29;;;;;;;43.10;18.92;;;4.90;90.50;;;;;;5130890;28;20024;-85
2022/03/23 01:38:56;;;;;;;42.47;19.05;;;4.90;90.10;;;;;;5117630;28;20032;-84
2022/03/23 01:41:23;;;;;;;45.13;19.50;;;4.90;90.30;;;;;;5117888;28;20302;-84
2022/03/23 01:43:50;;;;;;;45.50;19.15;;;4.80;90.70;;;;;;5135111;28;20027;-83
2022/03/23 01:46:20;;;;;;;42.78;17.83;;;4.90;90.40;;;;;;5133825;28;20026;-82
2022/03/23 01:48:46;;;;;;;43.88;19.42;;;4.80;90.40;;;;;;5115953;28;20111;-84
2022/03/23 01:51:13;;;;;;;43.22;18.42;;;4.80;90.10;;;;;;5128179;28;20031;-83
2022/03/23 01:53:40;;;;;;;50.95;18.90;;;4.70;90.00;;;;;;5114533;28;20042;-85
2022/03/23 01:56:09;;;;;;;47.72;20.23;;;4.70;90.00;;;;;;5117248;28;20008;-82
2022/03/23 01:58:36;;;;;;;42.00;18.50;;;4.60;90.10;;;;;;5135964;28;20016;-83
2022/03/23 02:01:08;;;;;;;52.35;20.45;;;4.60;90.20;;;;;;5102185;28;20032;-84
2022/03/23 02:03:34;;;;;;;53.00;20.77;;;4.60;91.10;;;;;;5136243;28;20038;-83
2022/03/23 02:06:00;;;;;;;47.35;20.17;;;4.50;92.30;;;;;;5118974;28;20027;-82
2022/03/23 02:08:26;;;;;;;46.05;19.80;;;4.50;93.30;;;;;;5135505;28;20031;-83
2022/03/23 02:10:51;;;;;;;43.35;19.67;;;4.50;94.50;;;;;;5116362;28;20020;-83
2022/03/23 02:13:27;;;;;;;45.95;20.85;;;4.40;95.20;;;;;;5112924;28;20007;-83
2022/03/23 02:15:52;;;;;;;51.90;18.90;;;4.40;96.80;;;;;;5111748;28;20057;-84
2022/03/23 02:18:20;;;;;;;48.83;18.85;;;4.30;98.80;;;;;;5112246;28;20127;-84
2022/03/23 02:20:46;;;;;;;41.40;19.25;;;4.30;99.90;;;;;;5117069;28;20023;-81
2022/03/23 02:23:12;;;;;;;54.03;18.75;;;4.30;99.90;;;;;;5114288;28;20038;-84
2022/03/23 02:25:40;;;;;;;52.70;18.35;;;4.30;99.90;;;;;;5132121;28;20027;-82
2022/03/23 02:28:07;;;;;;;46.40;20.15;;;4.30;99.90;;;;;;5126829;28;20490;-84
2022/03/23 02:30:32;;;;;;;47.08;19.52;;;4.20;99.90;;;;;;5125517;28;20026;-84
2022/03/23 02:33:01;;;;;;;47.88;20.27;;;4.20;99.90;;;;;;5110784;28;20024;-84
2022/03/23 02:35:27;;;;;;;46.47;19.02;;;4.10;99.90;;;;;;5131456;28;20027;-84
2022/03/23 02:37:53;;;;;;;45.28;19.17;;;4.10;99.90;;;;;;5132011;28;20027;-84
2022/03/23 02:40:19;;;;;;;54.28;20.00;;;4.10;99.90;;;;;;5116945;28;20103;-84
2022/03/23 02:42:45;;;;;;;49.50;20.63;;;4.00;99.90;;;;;;5115257;28;20024;-84
2022/03/23 02:45:11;;;;;;;44.95;19.50;;;4.00;99.90;;;;;;5115123;28;20030;-85
2022/03/23 02:47:37;;;;;;;45.25;19.13;;;4.00;99.90;;;;;;5132786;28;20024;-84
2022/03/23 02:50:03;;;;;;;58.38;18.65;;;4.00;99.90;;;;;;5133741;28;20027;-85
2022/03/23 02:52:31;;;;;;;58.70;17.80;;;3.90;99.90;;;;;;5132592;28;20051;-82
2022/03/23 03:03:36;;;;;;;43.03;17.40;;;3.90;99.90;;;;;;5136572;28;20050;-83
2022/03/23 03:06:04;;;;;;;39.78;16.48;;;3.90;99.90;;;;;;5124050;28;20083;-83
2022/03/23 03:08:45;;;;;;;51.10;17.00;;;3.90;99.90;;;;;;5141248;28;20019;-84
2022/03/23 03:11:11;;;;;;;41.38;17.33;;;3.80;99.90;;;;;;5140914;28;20047;-85
2022/03/23 03:13:39;;;;;;;38.35;16.58;;;3.80;99.90;;;;;;5137887;28;20034;-84
2022/03/23 03:16:05;;;;;;;44.47;17.23;;;3.80;99.90;;;;;;5116860;28;20049;-82
2022/03/23 03:18:32;;;;;;;49.67;17.83;;;3.80;99.90;;;;;;5116622;28;20228;-84
2022/03/23 03:20:58;;;;;;;38.03;16.52;;;3.80;99.90;;;;;;5133968;28;20049;-82
2022/03/23 03:23:25;;;;;;;43.33;16.55;;;3.80;99.90;;;;;;5119624;28;20035;-83
2022/03/23 03:25:51;;;;;;;52.70;17.42;;;3.70;99.90;;;;;;5138383;28;20024;-84
2022/03/23 03:28:17;;;;;;;47.95;17.55;;;3.70;99.90;;;;;;5121372;28;20014;-83
2022/03/23 03:30:43;;;;;;;45.47;17.02;;;3.60;99.90;;;;;;5139724;28;20043;-83
2022/03/23 03:33:09;;;;;;;45.22;17.25;;;3.60;99.90;;;;;;5122449;28;20042;-84
2022/03/23 03:35:35;;;;;;;42.83;16.80;;;3.60;99.90;;;;;;5103039;28;20138;-85
2022/03/23 03:38:00;;;;;;;49.42;18.42;;;3.50;99.90;;;;;;5116927;28;20027;-83
2022/03/23 03:40:26;;;;;;;46.55;17.10;;;3.50;99.90;;;;;;5138824;28;20015;-82
2022/03/23 03:42:52;;;;;;;41.63;17.15;;;3.40;99.90;;;;;;5138233;28;20107;-83
2022/03/23 03:45:18;;;;;;;43.90;16.73;;;3.40;99.90;;;;;;5138165;28;20057;-83
2022/03/23 03:47:44;;;;;;;53.75;16.73;;;3.40;99.90;;;;;;5136682;28;20095;-85
2022/03/23 03:50:10;;;;;;;41.47;15.90;;;3.30;99.90;;;;;;5119085;28;20064;-85
2022/03/23 03:52:36;;;;;;;46.15;17.10;;;3.30;99.90;;;;;;5137489;28;20053;-83
2022/03/23 03:55:02;;;;;;;40.03;16.40;;;3.30;99.90;;;;;;5114532;28;20411;-83
2022/03/23 03:57:28;;;;;;;38.50;16.13;;;3.20;99.90;;;;;;5131556;28;20080;-82
2022/03/23 03:59:54;;;;;;;53.15;19.02;;;3.20;99.90;;;;;;5135975;28;20031;-84
2022/03/23 04:02:20;;;;;;;43.75;16.85;;;3.20;99.90;;;;;;5138236;28;20034;-84
2022/03/23 04:04:46;;;;;;;43.83;17.58;;;3.10;99.90;;;;;;5137548;28;20091;-81
2022/03/23 04:07:12;;;;;;;38.53;17.63;;;3.10;99.90;;;;;;5137765;28;20052;-81
2022/03/23 04:09:38;;;;;;;57.25;18.33;;;3.00;99.90;;;;;;5135365;28;20039;-82
2022/03/23 04:12:04;;;;;;;43.25;19.63;;;3.00;99.90;;;;;;5128329;28;20103;-84
2022/03/23 04:14:30;;;;;;;45.72;19.27;;;2.90;99.90;;;;;;5109309;28;20036;-84
2022/03/23 04:16:56;;;;;;;55.38;18.85;;;3.00;99.90;;;;;;5131236;28;20032;-85
2022/03/23 04:19:22;;;;;;;52.60;19.05;;;2.90;99.90;;;;;;5111331;28;20101;-86
2022/03/23 04:21:48;;;;;;;41.33;17.67;;;2.90;99.90;;;;;;5130532;28;20028;-83
2022/03/23 04:24:13;;;;;;;44.00;17.67;;;3.00;99.90;;;;;;5125727;28;20448;-83
2022/03/23 04:26:39;;;;;;;43.67;18.15;;;3.00;99.90;;;;;;5129500;28;20079;-80
2022/03/23 04:29:06;;;;;;;48.97;19.13;;;3.00;99.90;;;;;;5130250;28;20027;-83
2022/03/23 04:31:32;;;;;;;39.47;18.05;;;3.00;99.90;;;;;;5127130;28;20026;-85
2022/03/23 04:33:57;;;;;;;40.10;17.65;;;3.00;99.90;;;;;;5124401;28;20024;-85
2022/03/23 04:36:23;;;;;;;45.47;18.90;;;3.00;99.90;;;;;;5122407;28;20023;-84
2022/03/23 04:38:49;;;;;;;39.75;19.15;;;3.00;99.90;;;;;;5106379;28;20035;-83
2022/03/23 04:41:15;;;;;;;47.53;19.55;;;3.00;99.90;;;;;;5107142;28;20028;-81
2022/03/23 04:43:41;;;;;;;43.50;20.00;;;3.00;99.90;;;;;;5108984;28;20028;-84
2022/03/23 04:46:07;;;;;;;48.72;20.58;;;3.00;99.90;;;;;;5110468;28;20019;-84
2022/03/23 04:48:33;;;;;;;43.80;20.58;;;3.00;99.90;;;;;;5130175;28;20028;-84
2022/03/23 04:50:59;;;;;;;55.67;21.02;;;2.90;99.90;;;;;;5109879;28;20023;-85
2022/03/23 04:53:25;;;;;;;50.13;20.10;;;2.90;99.90;;;;;;5127082;28;20062;-83
2022/03/23 04:55:51;;;;;;;44.88;21.00;;;2.90;99.90;;;;;;5125962;28;20030;-84
2022/03/23 04:58:16;;;;;;;47.28;20.75;;;2.90;99.90;;;;;;5136209;28;20043;-83
2022/03/23 05:00:42;;;;;;;42.00;19.55;;;2.90;99.90;;;;;;5100640;28;20023;-84
2022/03/23 05:03:08;;;;;;;48.40;21.35;;;2.90;99.90;;;;;;5135984;28;20052;-82
2022/03/23 05:05:34;;;;;;;51.72;20.63;;;2.90;99.90;;;;;;5135712;28;20034;-84
2022/03/23 05:08:00;;;;;;;54.90;21.15;;;2.90;99.90;;;;;;5132114;28;20114;-85
2022/03/23 05:10:27;;;;;;;56.50;21.33;;;2.90;99.90;;;;;;5131475;28;20042;-83
2022/03/23 05:12:53;;;;;;;52.53;20.83;;;3.00;99.90;;;;;;5100095;28;20027;-82
2022/03/23 05:15:19;;;;;;;52.13;21.58;;;3.00;99.80;;;;;;5136360;28;20026;-82
2022/03/23 05:17:45;;;;;;;44.28;19.70;;;3.10;99.60;;;;;;5136978;28;20045;-84
2022/03/23 05:20:14;;;;;;;58.33;22.75;;;3.10;99.70;;;;;;5135821;28;20043;-82
2022/03/23 05:22:40;;;;;;;49.83;21.73;;;3.10;99.80;;;;;;5116226;28;20035;-84
2022/03/23 05:25:07;;;;;;;54.20;22.23;;;3.10;99.70;;;;;;5101329;28;20069;-82
2022/03/23 05:27:37;;;;;;;59.80;22.58;;;3.20;99.90;;;;;;5136439;28;20020;-84
2022/03/23 05:30:07;;;;;;;57.85;23.00;;;3.20;99.90;;;;;;5134185;28;20032;-83
2022/03/23 05:32:34;;;;;;;49.97;23.17;;;3.30;99.90;;;;;;5116380;28;20024;-82
2022/03/23 05:35:00;;;;;;;55.63;22.80;;;3.30;99.90;;;;;;5113856;28;20053;-83
2022/03/23 05:37:26;;;;;;;56.13;22.13;;;3.30;99.90;;;;;;5115413;28;20089;-83
2022/03/23 05:39:52;;;;;;;48.05;21.23;;;3.30;99.90;;;;;;5115599;28;20028;-82
2022/03/23 05:42:18;;;;;;;56.28;21.25;;;3.20;99.80;;;;;;5116339;28;20036;-84
2022/03/23 05:44:45;;;;;;;47.85;20.35;;;3.30;99.10;;;;;;5116342;28;20029;-83
2022/03/23 05:47:11;;;;;;;47.42;21.13;;;3.30;97.90;;;;;;5116220;28;20084;-84
2022/03/23 05:49:37;;;;;;;41.80;19.67;;;3.30;97.50;;;;;;5116054;28;20020;-84
2022/03/23 05:52:03;;;;;;;50.30;20.55;;;3.30;97.20;;;;;;5122676;28;20028;-83
2022/03/23 05:54:29;;;;;;;50.08;19.35;;;3.40;96.80;;;;;;5130843;28;20020;-84
2022/03/23 05:56:55;;;;;;;46.25;20.27;;;3.50;96.30;;;;;;5127214;28;20228;-86
2022/03/23 05:59:21;;;;;;;44.13;19.88;;;3.50;96.10;;;;;;5129460;28;19996;-84
2022/03/23 06:01:46;;;;;;;40.83;17.95;;;3.60;95.80;;;;;;5126070;28;20051;-84
2022/03/23 06:04:12;;;;;;;44.85;18.33;;;3.70;95.50;;;;;;5119391;28;20058;-85
2022/03/23 06:06:39;;;;;;;44.97;19.30;;;3.80;95.20;;;;;;5119178;28;20065;-86
2022/03/23 06:09:05;;;;;;;43.72;19.50;;;3.90;94.90;;;;;;5117994;28;20035;-84
2022/03/23 06:11:31;;;;;;;48.38;19.85;;;4.00;94.60;;;;;;5115208;28;20032;-84
2022/03/23 06:13:57;;;;;;;49.10;20.05;;;4.10;94.50;;;;;;5118806;28;20041;-85
2022/03/23 06:16:23;;;;;;;44.08;19.73;;;4.30;94.20;;;;;;5127913;28;20058;-86
2022/03/23 06:18:49;;;;;;;42.40;18.92;;;4.40;94.10;;;;;;5102798;28;20032;-84
2022/03/23 06:21:15;;;;;;;47.53;21.23;;;4.60;93.60;;;;;;5114653;28;20057;-83
2022/03/23 06:26:23;;;;;;;43.15;19.23;;;4.80;93.80;;;;;;5084243;23;20045;-91
2022/03/23 06:28:50;;;;;;;46.92;20.95;;;5.00;94.00;;;;;;5076764;28;20040;-90
2022/03/23 06:34:00;;;;;;;48.83;21.17;;;5.20;93.40;;;;;;5383209;23;20034;-90
2022/03/23 06:36:26;;;;;;;41.05;20.33;;;5.40;92.90;;;;;;5020851;28;20026;-89
2022/03/23 06:38:52;;;;;;;39.90;20.65;;;5.60;92.50;;;;;;5039795;28;20078;-90
2022/03/23 06:41:18;;;;;;;53.00;21.10;;;5.80;92.40;;;;;;5038620;28;20018;-90
2022/03/23 06:43:44;;;;;;;50.45;22.15;;;5.90;92.00;;;;;;5040608;28;20077;-90
2022/03/23 06:46:11;;;;;;;43.83;21.40;;;6.10;91.80;;;;;;5039725;28;20025;-91
2022/03/23 06:48:37;;;;;;;48.80;21.40;;;6.30;91.50;;;;;;5040240;28;20053;-92
2022/03/23 06:51:03;;;;;;;48.17;20.48;;;6.50;91.10;;;;;;5040024;28;20014;-91
2022/03/23 06:53:29;;;;;;;41.92;21.77;;;6.70;90.80;;;;;;5038824;28;20029;-91
2022/03/23 06:55:56;;;;;;;57.38;21.65;;;6.80;90.30;;;;;;5035946;28;20022;-89
2022/03/23 06:58:22;;;;;;;49.72;22.33;;;6.80;90.20;;;;;;5038974;28;20014;-89
2022/03/23 07:00:48;;;;;;;47.65;21.10;;;6.90;89.50;;;;;;5034551;28;20033;-91
2022/03/23 07:03:14;;;;;;;52.97;20.73;;;7.10;88.50;;;;;;5014841;28;20030;-92
2022/03/23 07:05:44;;;;;;;47.15;21.23;;;7.30;87.60;;;;;;5034939;28;20239;-92
2022/03/23 07:10:54;;;;;;;47.57;21.43;;;7.40;86.40;;;;;;5018600;28;20022;-93
2022/03/23 07:16:02;;;;;;;44.83;20.65;;;7.80;85.00;;;;;;5348995;23;20073;-91
2022/03/23 07:18:28;;;;;;;49.58;20.90;;;8.00;84.50;;;;;;5039440;28;20121;-90
2022/03/23 07:20:54;;;;;;;51.72;21.42;;;8.00;83.90;;;;;;5023157;28;20064;-91
2022/03/23 07:23:20;;;;;;;54.10;22.20;;;8.00;84.00;;;;;;5039420;28;20089;-91
2022/03/23 07:25:46;;;;;;;48.55;22.20;;;8.10;85.10;;;;;;5038969;28;20076;-91
2022/03/23 07:28:12;;;;;;;54.60;23.92;;;8.10;85.30;;;;;;5020982;28;20030;-90
2022/03/23 07:30:40;;;;;;;56.58;22.85;;;8.30;85.30;;;;;;5037210;28;20026;-91
2022/03/23 07:33:08;;;;;;;55.30;22.67;;;8.30;84.10;;;;;;5039007;28;20021;-90
2022/03/23 07:35:34;;;;;;;50.28;23.27;;;8.50;83.90;;;;;;5038684;28;20030;-90
2022/03/23 07:38:01;;;;;;;49.92;23.25;;;8.60;83.20;;;;;;5039297;28;20082;-91
2022/03/23 07:40:27;;;;;;;53.75;22.17;;;8.80;82.70;;;;;;5021982;28;20018;-92
2022/03/23 07:42:53;;;;;;;43.97;21.45;;;8.90;82.20;;;;;;5039195;28;20053;-91
2022/03/23 07:45:19;;;;;;;49.15;21.85;;;8.90;81.90;;;;;;5038844;28;20029;-90
2022/03/23 07:47:45;;;;;;;44.72;20.15;;;9.00;81.10;;;;;;5022143;28;20018;-90
2022/03/23 07:50:11;;;;;;;39.83;19.95;;;9.00;80.80;;;;;;5039331;28;20049;-90
2022/03/23 07:52:39;;;;;;;37.78;20.33;;;9.00;80.00;;;;;;5038753;28;20025;-89
2022/03/23 07:55:06;;;;;;;45.70;19.77;;;9.10;79.30;;;;;;5039502;28;20018;-92
2022/03/23 07:57:32;;;;;;;42.65;19.00;;;9.20;79.60;;;;;;5022638;28;20046;-90
2022/03/23 07:59:58;;;;;;;49.80;20.67;;;9.20;79.20;;;;;;5081012;23;20118;-92
2022/03/23 08:02:29;;;;;;;56.65;20.65;;;9.30;79.00;;;;;;5019419;28;20026;-93
2022/03/23 08:07:36;;;;;;;49.05;19.00;;;9.50;77.40;;;;;;5116671;28;20075;-90
2022/03/23 08:10:03;;;;;;;43.15;18.13;;;9.70;76.70;;;;;;5082479;28;20035;-92
2022/03/23 08:12:29;;;;;;;43.10;19.55;;;9.80;75.90;;;;;;5081418;28;20115;-93
2022/03/23 08:14:55;;;;;;;35.50;18.63;;;10.00;76.50;;;;;;5093703;28;20032;-92
2022/03/23 08:17:21;;;;;;;35.65;18.27;;;10.20;75.60;;;;;;5080966;28;20013;-92
2022/03/23 08:20:32;;;;;;;38.60;19.40;;;10.30;75.60;;;;;;5061695;28;20012;-92
2022/03/23 08:22:37;;;;;;;46.40;19.23;;;10.40;75.10;;;;;;5064693;28;20036;-91
2022/03/23 08:25:03;;;;;;;45.53;18.52;;;10.60;73.60;;;;;;5075695;28;20025;-90
2022/03/23 08:27:29;;;;;;;40.40;18.98;;;10.70;73.40;;;;;;5079591;28;20044;-91
2022/03/23 08:29:55;;;;;;;43.28;21.75;;;10.90;73.00;;;;;;5060901;28;20077;-92
2022/03/23 08:32:22;;;;;;;39.15;18.65;;;11.10;72.40;;;;;;5060505;28;20060;-91
2022/03/23 08:34:49;;;;;;;39.25;18.08;;;11.20;72.90;;;;;;5037133;28;20443;-91
2022/03/23 08:37:16;;;;;;;32.67;19.00;;;11.20;72.00;;;;;;5043420;28;20029;-90
2022/03/23 08:39:41;;;;;;;41.13;18.88;;;11.20;72.10;;;;;;5078229;28;20021;-89
2022/03/23 08:42:07;;;;;;;36.40;17.77;;;11.40;71.60;;;;;;5058288;28;20036;-92
2022/03/23 08:44:33;;;;;;;39.30;17.58;;;11.40;71.20;;;;;;5072915;28;20078;-91
2022/03/23 08:47:00;;;;;;;34.25;16.17;;;11.40;70.40;;;;;;5076558;28;20037;-91
2022/03/23 08:49:26;;;;;;;28.67;14.90;;;11.60;70.20;;;;;;5060988;28;20024;-91
2022/03/23 08:51:52;;;;;;;26.30;15.57;;;11.70;69.70;;;;;;5077286;28;20028;-92
2022/03/23 08:54:19;;;;;;;36.10;16.10;;;11.80;69.20;;;;;;5074200;28;20017;-91
2022/03/23 08:56:46;;;;;;;38.78;16.77;;;11.80;69.10;;;;;;5059563;28;20084;-90
2022/03/23 08:59:12;;;;;;;31.40;15.23;;;11.90;69.00;;;;;;5121300;23;20351;-91
2022/03/23 09:01:38;;;;;;;33.35;16.10;;;12.10;68.50;;;;;;5058171;28;20009;-91
2022/03/23 09:04:07;;;;;;;26.38;15.45;;;12.20;68.10;;;;;;5017638;28;20033;-89
2022/03/23 09:06:34;;;;;;;31.30;16.10;;;12.30;67.80;;;;;;5045403;28;20033;-92
2022/03/23 09:09:00;;;;;;;32.15;16.05;;;12.60;67.70;;;;;;5034744;28;20021;-91
2022/03/23 09:11:26;;;;;;;30.13;15.73;;;13.00;66.70;;;;;;5052098;28;20022;-92
2022/03/23 09:13:57;;;;;;;32.45;16.50;;;13.40;65.50;;;;;;5034415;28;20041;-92
2022/03/23 09:16:23;;;;;;;29.92;14.95;;;14.20;64.30;;;;;;5021239;28;20093;-92
2022/03/23 09:18:49;;;;;;;29.23;15.68;;;14.70;63.20;;;;;;5054381;28;20030;-93
2022/03/23 09:21:38;;;;;;;33.55;15.85;;;15.80;60.80;;;;;;5036571;28;20026;-94
2022/03/23 09:24:07;;;;;;;33.65;15.88;;;17.20;58.90;;;;;;5131826;23;20037;-92
2022/03/23 09:29:15;;;;;;;33.72;16.55;;;18.80;55.70;;;;;;5396312;23;20493;-91
2022/03/23 09:31:41;;;;;;;23.08;14.73;;;20.10;53.10;;;;;;5031368;28;20028;-90
2022/03/23 09:34:07;;;;;;;24.50;15.32;;;20.70;51.40;;;;;;5050631;28;20065;-93
2022/03/23 09:39:19;;;;;;;27.80;15.32;;;21.40;49.20;;;;;;5038018;28;20034;-92
2022/03/23 09:41:46;;;;;;;23.95;14.90;;;22.70;47.60;;;;;;5020227;28;20022;-93
2022/03/23 09:44:13;;;;;;;30.50;17.17;;;23.80;46.60;;;;;;5003903;28;20018;-91
2022/03/23 09:46:39;;;;;;;27.02;15.75;;;24.90;44.70;;;;;;5018375;28;20030;-90
2022/03/23 09:49:07;;;;;;;24.55;15.25;;;25.60;44.10;;;;;;5009988;28;20038;-91
2022/03/23 09:51:35;;;;;;;27.98;16.48;;;26.40;42.50;;;;;;5030120;28;20070;-91
2022/03/23 09:54:02;;;;;;;25.52;16.70;;;27.10;41.50;;;;;;5001138;28;20057;-92
2022/03/23 09:56:32;;;;;;;34.45;17.27;;;27.70;41.60;;;;;;4993109;28;20037;-91
2022/03/23 09:59:01;;;;;;;37.88;18.20;;;28.20;40.30;;;;;;4995066;28;20049;-90
2022/03/23 10:01:34;;;;;;;33.85;16.23;;;28.90;39.60;;;;;;5023585;28;20041;-91
2022/03/23 10:04:13;;;;;;;29.60;17.10;;;29.60;39.50;;;;;;5039737;28;20026;-91
2022/03/23 10:07:06;;;;;;;32.88;17.73;;;30.50;38.70;;;;;;5023918;28;20048;-90
2022/03/23 10:10:05;;;;;;;34.47;17.43;;;30.20;37.90;;;;;;5040019;28;20053;-93
2022/03/23 10:13:11;;;;;;;33.25;18.10;;;29.70;37.90;;;;;;5023993;28;20303;-91
2022/03/23 10:16:02;;;;;;;28.85;17.65;;;29.60;37.70;;;;;;5039052;28;20036;-92
2022/03/23 10:18:57;;;;;;;27.58;17.60;;;30.60;37.70;;;;;;5003438;28;20033;-92
2022/03/23 10:21:26;;;;;;;31.02;17.67;;;31.50;36.80;;;;;;5003723;28;20100;-92
2022/03/23 10:24:11;;;;;;;29.15;18.65;;;31.70;36.70;;;;;;4999085;28;20057;-88
2022/03/23 10:26:58;;;;;;;28.58;17.65;;;32.40;36.30;;;;;;4994168;28;20038;-91
2022/03/23 10:48:17;;;;;;;23.80;14.88;;;32.80;35.00;;;;;;5842292;23;20041;-94
2022/03/23 10:51:29;;;;;;;24.83;15.65;;;32.90;35.00;;;;;;5110981;23;20033;-91
2022/03/23 11:45:32;;;;;;;23.25;14.18;;;33.70;33.40;;;;;;1315026;22;20324;-93
2022/03/23 11:48:30;;;;;;;19.40;14.52;;;33.60;33.50;;;;;;5021580;28;20033;-93
2022/03/23 12:26:00;;;;;;;22.90;10.50;;;36.60;30.00;;;;;;4938433;23;20118;-86
2022/03/23 12:29:16;;;;;;;16.45;10.20;;;36.30;30.30;;;;;;4978907;28;20023;-87
2022/03/23 12:31:42;;;;;;;22.35;11.45;;;36.20;30.50;;;;;;4936764;29;20044;-86
2022/03/23 12:34:18;;;;;;;22.35;11.68;;;37.00;30.50;;;;;;4965015;28;20043;-87
2022/03/23 12:36:56;;;;;;;17.10;11.65;;;36.10;30.00;;;;;;4963810;29;20083;-85
2022/03/23 12:39:32;;;;;;;17.40;11.25;;;35.10;30.30;;;;;;4972467;29;20038;-84
2022/03/23 12:42:03;;;;;;;25.20;12.25;;;34.50;30.70;;;;;;4974712;28;20066;-84
2022/03/23 12:44:31;;;;;;;22.55;11.20;;;35.10;31.30;;;;;;4975246;28;20116;-84
2022/03/23 12:47:05;;;;;;;16.85;10.63;;;35.00;30.50;;;;;;4973214;28;20035;-86
2022/03/23 12:58:07;;;;;;;16.50;10.02;;;36.80;30.20;;;;;;4978786;28;20023;-84
2022/03/23 13:00:48;;;;;;;19.08;10.10;;;37.50;30.10;;;;;;4978233;28;20103;-87
2022/03/23 13:03:18;;;;;;;18.15;10.88;;;37.50;30.00;;;;;;4972628;28;20015;-85
2022/03/23 13:05:59;;;;;;;17.73;10.23;;;36.90;30.00;;;;;;4971055;28;20050;-85
2022/03/23 13:08:32;;;;;;;16.10;9.70;;;37.40;30.00;;;;;;4973725;29;20027;-84
2022/03/23 13:11:01;;;;;;;18.83;9.50;;;37.50;29.80;;;;;;4972027;28;20076;-84
2022/03/23 13:13:37;;;;;;;18.45;10.25;;;36.90;29.70;;;;;;4973690;28;20054;-85
2022/03/23 13:16:18;;;;;;;16.08;9.63;;;36.40;30.00;;;;;;4973754;28;20035;-88
2022/03/23 13:18:47;;;;;;;18.15;9.93;;;37.10;29.90;;;;;;4972848;28;20039;-86
2022/03/23 13:21:21;;;;;;;17.70;10.25;;;37.20;29.80;;;;;;4973806;28;20024;-84
2022/03/23 13:23:55;;;;;;;14.85;9.43;;;36.90;29.50;;;;;;4972742;28;20027;-87
2022/03/23 13:26:24;;;;;;;12.88;8.25;;;36.10;29.40;;;;;;4972696;28;20423;-84
2022/03/23 13:28:55;;;;;;;13.85;8.85;;;36.20;29.40;;;;;;4963992;29;20079;-87
2022/03/23 13:31:34;;;;;;;14.30;8.63;;;36.00;29.20;;;;;;4953629;29;20684;-86
2022/03/23 13:34:03;;;;;;;15.45;9.05;;;36.40;29.20;;;;;;4953731;29;20027;-86
2022/03/23 13:36:32;;;;;;;13.52;8.20;;;36.80;29.20;;;;;;4957944;29;20035;-88
2022/03/23 13:38:58;;;;;;;12.07;7.88;;;37.60;29.10;;;;;;4965813;28;20039;-89
2022/03/23 13:44:11;;;;;;;17.70;8.57;;;38.20;28.80;;;;;;4964243;28;20035;-87
2022/03/23 13:46:38;;;;;;;13.88;8.30;;;38.00;28.60;;;;;;4960869;29;20490;-89
2022/03/23 13:49:09;;;;;;;13.82;8.68;;;36.60;28.80;;;;;;4963886;28;20096;-90
2022/03/23 13:51:43;;;;;;;13.05;8.10;;;36.30;28.80;;;;;;4963864;29;20019;-90
2022/03/23 13:54:14;;;;;;;;;;;36.50;28.60;;;;;;4973468;28;20031;-89
2022/03/23 13:59:53;;;;;;;16.02;9.95;;;34.50;28.30;;;;;;4970236;28;20032;-89
2022/03/23 14:02:26;;;;;;;19.42;10.07;;;32.10;28.90;;;;;;4972625;28;20024;-89
2022/03/23 14:04:52;;;;;;;14.70;9.23;;;30.10;29.10;;;;;;4962786;28;20043;-87
2022/03/23 14:07:18;;;;;;;15.02;9.13;;;28.90;29.80;;;;;;4966461;28;20028;-88
2022/03/23 14:09:45;;;;;;;16.33;8.55;;;27.60;30.00;;;;;;4964360;28;20096;-86
2022/03/23 14:12:12;;;;;;;15.55;8.52;;;26.90;30.20;;;;;;4964528;28;20048;-89
2022/03/23 14:14:43;;;;;;;15.75;9.30;;;26.30;30.80;;;;;;4969343;28;20023;-88
2022/03/23 14:17:18;;;;;;;17.67;9.30;;;25.70;31.00;;;;;;4981268;28;20030;-87
2022/03/23 14:19:47;;;;;;;;;;;25.10;31.10;;;;;;4978740;29;20094;-89
2022/03/23 14:22:16;;;;;;;19.48;9.23;;;24.60;31.90;;;;;;4981200;28;19903;-87
2022/03/23 14:24:43;;;;;;;15.38;8.77;;;24.20;32.20;;;;;;4981378;28;20087;-87
2022/03/23 14:27:12;;;;;;;20.00;9.18;;;23.90;32.40;;;;;;4996421;28;20070;-89
2022/03/23 14:29:38;;;;;;;17.13;9.40;;;23.60;32.80;;;;;;4981240;28;20087;-87
2022/03/23 14:32:05;;;;;;;14.48;8.52;;;23.30;33.20;;;;;;4981524;28;20075;-85
2022/03/23 14:34:31;;;;;;;16.10;9.05;;;23.00;33.30;;;;;;4981305;28;20011;-86
2022/03/23 14:37:08;;;;;;;17.70;8.98;;;22.80;33.30;;;;;;4981223;28;20052;-87
2022/03/23 14:39:48;;;;;;;14.30;8.73;;;22.50;33.60;;;;;;4981312;28;20027;-87
2022/03/23 14:42:15;;;;;;;20.85;9.10;;;22.20;33.50;;;;;;4980977;28;20074;-87
2022/03/23 14:44:45;;;;;;;22.33;9.02;;;22.10;33.80;;;;;;4980743;28;20260;-89
2022/03/23 14:47:12;;;;;;;15.50;8.07;;;22.00;34.10;;;;;;4997081;28;20050;-87
2022/03/23 14:49:41;;;;;;;18.30;8.23;;;21.80;34.00;;;;;;4981034;28;20039;-89
2022/03/23 14:52:09;;;;;;;20.00;8.13;;;21.70;34.10;;;;;;4980883;28;20042;-90
2022/03/23 14:54:39;;;;;;;24.17;10.02;;;21.50;34.10;;;;;;4981068;28;20022;-86
2022/03/23 14:57:12;;;;;;;14.48;8.07;;;21.30;33.80;;;;;;4981341;28;20050;-87
2022/03/23 14:59:52;;;;;;;16.02;8.40;;;21.10;34.30;;;;;;4981193;28;20071;-90
2022/03/23 15:02:18;;;;;;;16.63;8.23;;;20.90;33.90;;;;;;4980915;28;20039;-87
2022/03/23 15:04:45;;;;;;;14.05;7.72;;;20.80;34.10;;;;;;4981313;28;20338;-88
2022/03/23 15:15:25;;;;;;;17.83;7.67;;;20.50;33.80;;;;;;4979826;28;20023;-87
2022/03/23 15:17:53;;;;;;;19.80;7.97;;;20.30;33.90;;;;;;4980481;28;20282;-88